Ethlyn, Missouri
Current Conditions -  °F | °C
As of 2:54 AM on Wednesday 22 Oct 2014 (Local Time) from KSET Reporting Station
Clear Clear  
Wind Chill: 41°   Ceiling: Unl
Heat Index: 45°   Visibility: 10mi
Dew Point: 41°   Wind: 8mph
Humidity: 86%   Direction: 80°E
Pressure: 30.23"   Gusts: NA
Location:  38.9362°N, 90.7728°W
Report Text: KSET 220754Z AUTO 08007KT 10SM CLR 07/05 A3023 RMK AO2 SLP236 T00720050 $
Loading
Personal Weather Stations






























Interactive Weather Map
Tropical Storm Tracking
New forecast layout! Learn more

10-Day Weather Forecast

Advertisements
Track Severe Weather on mobile